createdAt,value
2023-01-03T00:00:13.464Z,3.42
2023-01-03T00:03:17.299Z,3.55
2023-01-03T00:06:25.934Z,3.69
2023-01-03T00:09:29.205Z,3.85
2023-01-03T00:12:32.433Z,3.99
2023-01-03T00:15:36.657Z,4.02
2023-01-03T00:18:39.377Z,4.03
2023-01-03T00:21:42.933Z,4.12
2023-01-03T00:24:47.238Z,4.00
2023-01-03T00:27:50.158Z,4.11
2023-01-03T00:30:54.747Z,4.03
2023-01-03T00:33:57.777Z,4.09
2023-01-03T00:37:01.053Z,4.18
2023-01-03T00:40:04.811Z,4.22
2023-01-03T00:43:26.700Z,4.32
2023-01-03T00:46:30.081Z,4.39
2023-01-03T00:49:32.824Z,4.06
2023-01-03T00:52:35.786Z,4.12
2023-01-03T00:55:38.521Z,4.14
2023-01-03T00:58:42.065Z,4.02
2023-01-03T01:01:48.569Z,4.18
2023-01-03T01:04:53.828Z,4.15
2023-01-03T01:07:56.570Z,4.11
2023-01-03T01:11:03.003Z,4.11
2023-01-03T01:14:19.976Z,4.10
2023-01-03T01:17:23.318Z,4.14
2023-01-03T01:20:27.868Z,4.10
2023-01-03T01:23:30.729Z,4.21
2023-01-03T01:26:33.289Z,4.19
2023-01-03T01:29:38.149Z,4.09
2023-01-03T01:32:40.968Z,4.00
2023-01-03T01:35:43.871Z,3.66
2023-01-03T01:38:48.103Z,3.57
2023-01-03T01:42:19.084Z,3.60
2023-01-03T01:45:22.684Z,3.43
2023-01-03T01:48:25.614Z,3.61
2023-01-03T01:51:36.344Z,3.66
2023-01-03T01:54:41.372Z,3.66
2023-01-03T01:57:44.894Z,3.77
2023-01-03T02:00:48.191Z,3.85
2023-01-03T02:04:01.485Z,3.95
2023-01-03T02:07:06.509Z,3.80
2023-01-03T02:10:10.623Z,3.64
2023-01-03T02:13:27.750Z,3.64
2023-01-03T02:17:06.933Z,3.75
2023-01-03T02:20:36.999Z,3.71
2023-01-03T02:23:54.825Z,3.87
2023-01-03T02:27:03.452Z,3.69
2023-01-03T02:30:33.448Z,3.65
2023-01-03T02:34:04.803Z,3.69
2023-01-03T02:37:30.489Z,3.67
2023-01-03T02:40:45.799Z,3.75
2023-01-03T02:43:56.632Z,3.77
2023-01-03T02:47:14.257Z,3.75
2023-01-03T02:50:24.665Z,3.86
2023-01-03T02:53:42.681Z,3.85
2023-01-03T02:56:52.329Z,3.93
2023-01-03T03:00:00.980Z,3.77
2023-01-03T03:03:11.216Z,3.75
2023-01-03T03:06:26.366Z,3.66
2023-01-03T03:09:30.435Z,3.65
2023-01-03T03:12:53.903Z,3.56
2023-01-03T03:16:09.942Z,3.48
2023-01-03T03:19:54.737Z,3.46
2023-01-03T03:23:19.495Z,3.41
2023-01-03T03:26:30.741Z,3.44
2023-01-03T03:29:34.185Z,3.38
2023-01-03T03:32:39.956Z,3.35
2023-01-03T03:35:59.973Z,3.41
2023-01-03T03:39:04.327Z,3.36
2023-01-03T03:42:37.720Z,3.41
2023-01-03T03:46:23.211Z,3.40
2023-01-03T03:49:39.170Z,3.43
2023-01-03T03:52:46.448Z,3.38
2023-01-03T03:55:57.339Z,3.46
2023-01-03T03:59:07.204Z,3.37
2023-01-03T04:02:12.844Z,3.35
2023-01-03T04:05:21.045Z,3.26
2023-01-03T04:08:23.745Z,3.38
2023-01-03T04:11:27.038Z,3.39
2023-01-03T04:14:29.790Z,3.41
2023-01-03T04:17:33.454Z,3.44
2023-01-03T04:20:36.471Z,3.29
2023-01-03T04:23:39.438Z,3.23
2023-01-03T04:26:42.019Z,3.31
2023-01-03T04:29:44.962Z,3.45
2023-01-03T04:32:47.556Z,3.19
2023-01-03T04:35:50.485Z,3.36
2023-01-03T04:38:53.105Z,3.17
2023-01-03T04:41:56.303Z,3.32
2023-01-03T04:44:58.964Z,3.11
2023-01-03T04:48:02.521Z,3.04
2023-01-03T04:51:05.396Z,2.98
2023-01-03T04:54:08.395Z,2.86
2023-01-03T04:57:11.008Z,2.86
2023-01-03T05:00:14.431Z,2.82
2023-01-03T05:03:20.086Z,2.69
2023-01-03T05:06:28.425Z,2.83
2023-01-03T05:09:31.376Z,2.83
2023-01-03T05:12:34.245Z,2.84
2023-01-03T05:15:39.627Z,2.92
2023-01-03T05:18:42.621Z,3.05
2023-01-03T05:22:03.556Z,3.04
2023-01-03T05:25:25.714Z,3.09
2023-01-03T05:28:30.310Z,3.00
2023-01-03T05:31:33.362Z,3.18
2023-01-03T05:34:36.028Z,3.09
2023-01-03T05:37:38.978Z,3.02
2023-01-03T05:40:48.240Z,3.02
2023-01-03T05:43:51.117Z,2.94
2023-01-03T05:46:53.824Z,3.03
2023-01-03T05:49:56.739Z,2.95
2023-01-03T05:52:59.494Z,2.97
2023-01-03T05:56:06.514Z,2.94
2023-01-03T05:59:09.740Z,2.96
2023-01-03T06:02:12.795Z,2.83
2023-01-03T06:05:15.912Z,2.81
2023-01-03T06:08:18.582Z,2.66
2023-01-03T06:11:22.540Z,2.63
2023-01-03T06:14:26.208Z,2.63
2023-01-03T06:17:47.992Z,2.50
2023-01-03T06:20:50.708Z,2.56
2023-01-03T06:23:53.617Z,2.51
2023-01-03T06:26:56.269Z,2.53
2023-01-03T06:29:59.730Z,2.48
2023-01-03T06:33:02.360Z,2.54
2023-01-03T06:36:07.674Z,2.51
2023-01-03T06:39:10.336Z,2.42
2023-01-03T06:42:32.193Z,2.49
2023-01-03T06:45:55.080Z,2.56
2023-01-03T06:49:17.811Z,2.63
2023-01-03T06:52:39.357Z,2.68
2023-01-03T06:55:44.456Z,2.57
2023-01-03T06:58:47.093Z,2.73
2023-01-03T07:01:51.486Z,2.89
2023-01-03T07:04:54.334Z,2.91
2023-01-03T07:07:57.466Z,3.27
2023-01-03T07:11:00.353Z,3.72
2023-01-03T07:14:04.153Z,3.74
2023-01-03T07:17:06.822Z,3.90
2023-01-03T07:20:10.577Z,4.03
2023-01-03T07:23:14.274Z,4.09
2023-01-03T07:26:17.246Z,4.11
2023-01-03T07:29:20.005Z,4.19
2023-01-03T07:32:22.995Z,4.28
2023-01-03T07:35:25.549Z,4.28
2023-01-03T07:38:28.899Z,4.30
2023-01-03T07:41:50.052Z,4.31
2023-01-03T07:44:54.251Z,4.30
2023-01-03T07:47:57.338Z,4.24
2023-01-03T07:51:01.104Z,4.24
2023-01-03T07:54:03.821Z,4.20
2023-01-03T07:57:06.894Z,4.20
2023-01-03T08:00:10.344Z,4.16
2023-01-03T08:03:15.786Z,4.15
2023-01-03T08:06:21.961Z,3.92
2023-01-03T08:09:43.154Z,4.04
2023-01-03T08:13:04.514Z,4.08
2023-01-03T08:16:10.336Z,3.93
2023-01-03T08:19:13.263Z,3.96
2023-01-03T08:22:15.870Z,3.81
2023-01-03T08:25:18.826Z,3.78
2023-01-03T08:28:21.567Z,3.58
2023-01-03T08:31:30.944Z,3.73
2023-01-03T08:34:37.089Z,3.70
2023-01-03T08:37:40.145Z,3.84
2023-01-03T08:40:44.559Z,3.74
2023-01-03T08:43:49.314Z,3.87
2023-01-03T08:46:54.547Z,3.90
2023-01-03T08:49:58.864Z,3.76
2023-01-03T08:53:01.631Z,3.71
2023-01-03T08:56:04.871Z,3.77
2023-01-03T08:59:08.420Z,3.88
2023-01-03T09:02:11.926Z,3.98
2023-01-03T09:05:14.847Z,3.70
2023-01-03T09:08:18.532Z,3.62
2023-01-03T09:11:21.645Z,3.49
2023-01-03T09:14:24.596Z,3.50
2023-01-03T09:17:28.532Z,3.44
2023-01-03T09:20:36.950Z,3.65
2023-01-03T09:23:40.069Z,3.83
2023-01-03T09:26:42.969Z,3.84
2023-01-03T09:29:45.575Z,3.77
2023-01-03T09:32:50.925Z,3.89
2023-01-03T09:35:55.005Z,3.93
2023-01-03T09:38:58.030Z,4.08
2023-01-03T09:42:19.854Z,3.84
2023-01-03T09:45:50.554Z,3.82
2023-01-03T09:48:57.743Z,3.94
2023-01-03T09:52:19.560Z,4.00
2023-01-03T09:55:44.633Z,3.85
2023-01-03T09:59:12.847Z,3.88
2023-01-03T10:03:32.681Z,4.07
2023-01-03T10:06:50.726Z,4.12
2023-01-03T10:10:14.090Z,4.26
2023-01-03T10:13:36.151Z,4.33
2023-01-03T10:16:55.516Z,4.55
2023-01-03T10:20:27.887Z,4.49
2023-01-03T10:23:35.985Z,4.60
2023-01-03T10:26:38.917Z,4.70
2023-01-03T10:29:41.999Z,4.87
2023-01-03T10:33:01.443Z,4.84
2023-01-03T10:36:08.785Z,4.82
2023-01-03T10:39:11.770Z,4.93
2023-01-03T10:42:19.226Z,4.90
2023-01-03T10:45:22.368Z,5.04
2023-01-03T10:48:52.685Z,5.02
2023-01-03T10:52:20.233Z,5.04
2023-01-03T10:55:25.897Z,5.08
2023-01-03T10:58:35.876Z,5.10
2023-01-03T11:01:39.742Z,5.17
2023-01-03T11:04:44.048Z,5.11
2023-01-03T11:07:56.991Z,5.15
2023-01-03T11:11:02.296Z,5.16
2023-01-03T11:14:24.646Z,5.20
2023-01-03T11:17:29.412Z,5.20
2023-01-03T11:20:46.242Z,5.10
2023-01-03T11:23:49.030Z,5.27
2023-01-03T11:27:07.555Z,5.40
2023-01-03T11:30:18.681Z,5.42
2023-01-03T11:33:47.806Z,5.41
2023-01-03T11:37:01.599Z,5.32
2023-01-03T11:40:30.373Z,5.33
2023-01-03T11:44:10.112Z,5.25
2023-01-03T11:47:15.906Z,5.34
2023-01-03T11:50:25.000Z,5.38
2023-01-03T11:53:52.027Z,5.43
2023-01-03T11:56:58.090Z,5.45
2023-01-03T12:00:34.430Z,5.47
2023-01-03T12:04:15.382Z,5.50
2023-01-03T12:07:47.013Z,5.60
2023-01-03T12:11:02.609Z,5.62
2023-01-03T12:14:33.631Z,5.75
2023-01-03T12:17:44.130Z,5.76
2023-01-03T12:20:56.173Z,5.84
2023-01-03T12:24:04.210Z,5.87
2023-01-03T12:27:21.171Z,5.96
2023-01-03T12:30:36.971Z,5.97
2023-01-03T12:34:17.168Z,6.00
2023-01-03T12:37:49.577Z,5.99
2023-01-03T12:40:58.935Z,6.01
2023-01-03T12:44:12.090Z,6.04
2023-01-03T12:47:26.994Z,6.06
2023-01-03T12:50:36.356Z,6.16
2023-01-03T12:53:47.147Z,6.20
2023-01-03T12:56:55.088Z,6.27
2023-01-03T13:00:08.814Z,6.25
2023-01-03T13:03:28.701Z,6.27
2023-01-03T13:06:35.759Z,6.33
2023-01-03T13:09:46.417Z,6.37
2023-01-03T13:12:53.204Z,6.46
2023-01-03T13:15:56.409Z,6.54
2023-01-03T13:19:21.738Z,6.52
2023-01-03T13:22:45.629Z,6.52
2023-01-03T13:26:04.948Z,6.55
2023-01-03T13:29:58.861Z,6.54
2023-01-03T13:33:10.291Z,6.53
2023-01-03T13:36:13.252Z,6.57
2023-01-03T13:39:37.048Z,6.59
2023-01-03T13:42:40.841Z,6.62
2023-01-03T13:45:43.651Z,6.63
2023-01-03T13:48:55.905Z,6.63
2023-01-03T13:51:59.645Z,6.64
2023-01-03T13:55:02.841Z,6.64
2023-01-03T13:58:24.483Z,6.67
2023-01-03T14:01:54.002Z,6.69
2023-01-03T14:05:02.977Z,6.70
2023-01-03T14:08:35.442Z,6.70
2023-01-03T14:11:50.939Z,6.69
2023-01-03T14:14:56.387Z,6.70
2023-01-03T14:18:26.501Z,6.72
2023-01-03T14:22:26.826Z,6.75
2023-01-03T14:25:35.801Z,6.77
2023-01-03T14:28:39.197Z,6.75
2023-01-03T14:31:47.397Z,6.76
2023-01-03T14:34:50.205Z,6.76
2023-01-03T14:37:53.077Z,6.73
2023-01-03T14:40:57.289Z,6.87
2023-01-03T14:44:02.719Z,6.95
2023-01-03T14:47:07.596Z,6.94
2023-01-03T14:50:28.562Z,6.88
2023-01-03T14:53:35.434Z,6.84
2023-01-03T14:56:38.360Z,6.79
2023-01-03T14:59:41.483Z,6.80
2023-01-03T15:02:46.287Z,6.72
2023-01-03T15:05:54.784Z,6.73
2023-01-03T15:09:00.723Z,6.74
2023-01-03T15:12:05.565Z,6.67
2023-01-03T15:15:37.709Z,6.67
2023-01-03T15:18:40.897Z,6.64
2023-01-03T15:21:43.909Z,6.58
2023-01-03T15:24:49.346Z,6.59
2023-01-03T15:27:52.328Z,6.54
2023-01-03T15:30:58.419Z,6.59
2023-01-03T15:34:28.594Z,6.56
2023-01-03T15:37:31.225Z,6.54
2023-01-03T15:40:34.378Z,6.51
2023-01-03T15:43:38.727Z,6.51
2023-01-03T15:46:44.864Z,6.53
2023-01-03T15:49:51.958Z,6.50
2023-01-03T15:52:59.185Z,6.48
2023-01-03T15:56:05.956Z,6.41
2023-01-03T15:59:09.591Z,6.40
2023-01-03T16:02:17.776Z,6.43
2023-01-03T16:05:23.010Z,6.39
2023-01-03T16:08:33.493Z,6.42
2023-01-03T16:11:36.699Z,6.42
2023-01-03T16:14:42.768Z,6.39
2023-01-03T16:17:46.062Z,6.37
2023-01-03T16:20:50.535Z,6.38
2023-01-03T16:23:53.544Z,6.32
2023-01-03T16:26:57.433Z,6.40
2023-01-03T16:30:00.560Z,6.39
2023-01-03T16:33:03.382Z,6.40
2023-01-03T16:36:06.561Z,6.43
2023-01-03T16:39:21.761Z,6.45
2023-01-03T16:42:28.010Z,6.46
2023-01-03T16:45:30.878Z,6.48
2023-01-03T16:48:40.213Z,6.46
2023-01-03T16:51:48.952Z,6.43
2023-01-03T16:54:54.643Z,6.45
2023-01-03T16:57:57.505Z,6.43
2023-01-03T17:01:05.156Z,6.42
2023-01-03T17:04:08.964Z,6.42
2023-01-03T17:07:29.966Z,6.39
2023-01-03T17:10:36.968Z,6.42
2023-01-03T17:13:42.263Z,6.44
2023-01-03T17:16:45.667Z,6.41
2023-01-03T17:20:06.260Z,6.36
2023-01-03T17:23:13.446Z,6.43
2023-01-03T17:26:21.957Z,6.40
2023-01-03T17:29:26.448Z,6.41
2023-01-03T17:32:30.197Z,6.32
2023-01-03T17:35:33.752Z,6.32
2023-01-03T17:38:36.973Z,6.39
2023-01-03T17:41:58.210Z,6.38
2023-01-03T17:45:20.038Z,6.37
2023-01-03T17:49:01.229Z,6.33
2023-01-03T17:52:06.787Z,6.32
2023-01-03T17:55:21.806Z,6.33
2023-01-03T17:58:31.365Z,6.31
2023-01-03T18:01:34.311Z,6.34
2023-01-03T18:05:05.693Z,6.26
2023-01-03T18:08:02.849Z,6.32
2023-01-03T18:11:07.697Z,6.31
2023-01-03T18:14:15.376Z,6.25
2023-01-03T18:17:28.648Z,6.30
2023-01-03T18:20:32.196Z,6.28
2023-01-03T18:23:38.590Z,6.26
2023-01-03T18:26:43.770Z,6.23
2023-01-03T18:29:46.755Z,6.24
2023-01-03T18:32:49.392Z,6.13
2023-01-03T18:35:52.926Z,6.14
2023-01-03T18:39:06.169Z,6.23
2023-01-03T18:42:32.005Z,6.20
2023-01-03T18:45:35.248Z,6.20
2023-01-03T18:48:38.072Z,6.18
2023-01-03T18:51:40.727Z,6.17
2023-01-03T18:54:43.909Z,6.13
2023-01-03T18:57:47.995Z,6.14
2023-01-03T19:00:51.872Z,6.12
2023-01-03T19:03:54.571Z,6.09
2023-01-03T19:06:57.632Z,6.10
2023-01-03T19:10:02.436Z,6.07
2023-01-03T19:13:05.971Z,5.98
2023-01-03T19:16:08.782Z,6.00
2023-01-03T19:19:12.127Z,5.99
2023-01-03T19:22:28.010Z,5.96
2023-01-03T19:25:31.401Z,5.96
2023-01-03T19:28:34.217Z,5.94
2023-01-03T19:31:44.194Z,5.94
2023-01-03T19:34:47.149Z,5.90
2023-01-03T19:37:50.752Z,5.89
2023-01-03T19:40:54.168Z,5.86
2023-01-03T19:43:57.267Z,5.84
2023-01-03T19:47:00.774Z,5.81
2023-01-03T19:50:16.664Z,5.79
2023-01-03T19:53:19.560Z,5.77
2023-01-03T19:56:23.464Z,5.80
2023-01-03T19:59:38.241Z,5.75
2023-01-03T20:02:41.984Z,5.80
2023-01-03T20:05:45.227Z,5.77
2023-01-03T20:08:47.923Z,5.71
2023-01-03T20:11:53.187Z,5.70
2023-01-03T20:15:00.032Z,5.68
2023-01-03T20:18:30.724Z,5.61
2023-01-03T20:21:33.953Z,5.65
2023-01-03T20:24:36.940Z,5.61
2023-01-03T20:27:44.454Z,5.60
2023-01-03T20:30:51.022Z,5.58
2023-01-03T20:33:53.916Z,5.56
2023-01-03T20:36:57.026Z,5.53
2023-01-03T20:39:59.825Z,5.52
2023-01-03T20:43:03.960Z,5.52
2023-01-03T20:46:16.149Z,5.54
2023-01-03T20:49:27.389Z,5.53
2023-01-03T20:52:30.169Z,5.53
2023-01-03T20:55:33.281Z,5.52
2023-01-03T20:58:36.176Z,5.51
2023-01-03T21:01:39.210Z,5.49
2023-01-03T21:04:42.293Z,5.47
2023-01-03T21:08:04.640Z,5.51
2023-01-03T21:11:10.322Z,5.45
2023-01-03T21:14:14.812Z,5.51
2023-01-03T21:17:17.716Z,5.48
2023-01-03T21:20:24.274Z,5.51
2023-01-03T21:23:26.933Z,5.52
2023-01-03T21:26:30.320Z,5.51
2023-01-03T21:29:33.265Z,5.53
2023-01-03T21:32:36.293Z,5.58
2023-01-03T21:35:41.161Z,5.57
2023-01-03T21:38:44.152Z,5.54
2023-01-03T21:42:09.648Z,5.56
2023-01-03T21:45:14.234Z,5.56
2023-01-03T21:48:18.510Z,5.60
2023-01-03T21:51:38.430Z,5.60
2023-01-03T21:54:41.872Z,5.55
2023-01-03T21:57:45.032Z,5.56
2023-01-03T22:00:50.338Z,5.57
2023-01-03T22:04:31.827Z,5.56
2023-01-03T22:07:34.397Z,5.49
2023-01-03T22:10:39.160Z,5.59
2023-01-03T22:13:42.386Z,5.58
2023-01-03T22:16:45.372Z,5.62
2023-01-03T22:19:48.031Z,5.62
2023-01-03T22:22:51.157Z,5.62
2023-01-03T22:25:53.756Z,5.66
2023-01-03T22:28:56.669Z,5.70
2023-01-03T22:31:59.521Z,5.72
2023-01-03T22:35:02.481Z,5.67
2023-01-03T22:38:05.085Z,5.64
2023-01-03T22:41:13.931Z,5.70
2023-01-03T22:44:16.688Z,5.66
2023-01-03T22:47:20.981Z,5.68
2023-01-03T22:50:24.600Z,5.59
2023-01-03T22:53:27.613Z,5.69
2023-01-03T22:56:30.330Z,5.65
2023-01-03T22:59:33.847Z,5.67
2023-01-03T23:02:41.853Z,5.69
2023-01-03T23:05:45.414Z,5.65
2023-01-03T23:08:51.729Z,5.68
2023-01-03T23:12:13.558Z,5.63
2023-01-03T23:15:16.280Z,5.67
2023-01-03T23:18:19.133Z,5.64
2023-01-03T23:21:23.980Z,5.69
2023-01-03T23:24:27.068Z,5.66
2023-01-03T23:27:30.634Z,5.71
2023-01-03T23:30:36.861Z,5.69
2023-01-03T23:33:39.499Z,5.63
2023-01-03T23:36:43.479Z,5.64
2023-01-03T23:39:46.261Z,5.63
2023-01-03T23:42:49.194Z,5.61
2023-01-03T23:45:51.871Z,5.60
2023-01-03T23:48:56.472Z,5.60
2023-01-03T23:51:59.123Z,5.61
2023-01-03T23:55:06.982Z,5.58
2023-01-03T23:58:14.654Z,5.58
